หน้าหลัก
METAR-TAF:

METAR-TAF

ท่าอากาศยาน :

Osorno, ชิลี

ละติจูด: 40-36-41S, ลองจิจูด: 73-03-38W, ความสูง: 57 ม.

การสังเกตสภาพอากาศปัจจุบัน

รายงานได้ทำขึ้นเมื่อ 1 ชั่วโมงและ 14 นาทีที่แล้ว ณ เวลา 05:00 UTC
ลม 4 นอตจากทิศทางซึ่งแปรผันได้
อุณหภูมิ 3°C
ความชื้น 100%
ความกดอากาศ 1025 hPa
ทัศนวิสัย 10 กม. หรือมากกว่า
ไม่มีเมฆต่ำกว่า 1,500 ม. และไม่มีเมฆคิวมูโลนิมบัส

METAR: SCJO 200500Z AUTO VRB04KT CAVOK 03/03 Q1025

เวลา: 02:14 (06:14 UTC)

การพยากรณ์

รายงานได้ทำขึ้นเมื่อ 19 ชั่วโมงและ 4 นาทีที่แล้ว ณ เวลา 11:10 UTC
การพยากรณ์มีผลตั้งแต่วันที่ 19 ณ เวลา 12 UTC จนถึงวันที่ 19 ณ เวลา 24 UTC
ลม 7 นอตจากใต้
ทัศนวิสัย 10 กม. หรือมากกว่า
ไม่มีเมฆต่ำกว่า 1,500 ม. และไม่มีเมฆคิวมูโลนิมบัส

TAF: SCJO 191110Z 1912/1924 18007KT CAVOK TN04/1913Z TX10/1919Z

สังเกตการณ์สภาพอากาศและพยากรณ์อากาศของสนามบินมากกว่า 4000 แห่ง (รายงาน METAR และ TAF).

สถานีที่ดูได้จะแสดงไว้ด้วยจุดสีเหลืองและสีแดงบนแผนที่.

เลื่อนเมาส์ไปเหนือจุดเพื่อดูชื่อสถานี.

แล้วคลิกเพื่อดูสังเกตการณ์และการพยากรณ์สภาพอากาศ.

ในการเปลี่ยนแผนที่: คลิกที่ปุ่มสีเขียวที่มีกากบาทสีดำเพื่อซูมเข้า; ที่ปุ่มสีเขียวที่มีขีดเพื่อซูมออก; หรือที่ลูกศรสีเขียวเพื่อไปยังแผนที่ที่อยู่ติดกัน.


METAR-TAF: